Time;durP1;ratioP1;P1;durP2;ratioP2;P2;SDS_P1;SDS_P2;PMS_P1;PMS_P2;Temp;Humidity;BMP_temperature;BMP_pressure;BME280_temperature;BME280_humidity;BME280_pressure;Samples;Min_cycle;Max_cycle;Signal;HPM_P1;HPM_P2
2023/03/31 00:01:51;;;;;;;3.77;2.20;;;11.90;99.90;;;;;;5055034;28;20464;-61
2023/03/31 00:04:22;;;;;;;3.20;1.37;;;11.90;99.90;;;;;;5049125;28;20451;-55
2023/03/31 00:06:52;;;;;;;3.10;1.83;;;11.80;99.90;;;;;;5044410;28;20482;-57
2023/03/31 00:09:20;;;;;;;5.07;1.60;;;11.80;99.90;;;;;;5060216;28;20429;-62
2023/03/31 00:11:49;;;;;;;1.80;1.50;;;11.80;99.90;;;;;;5043111;28;20495;-53
2023/03/31 00:14:17;;;;;;;6.33;2.07;;;11.90;99.90;;;;;;5058396;28;20499;-62
2023/03/31 00:16:45;;;;;;;5.60;1.70;;;11.90;99.90;;;;;;5052880;28;20450;-60
2023/03/31 00:19:16;;;;;;;2.10;1.70;;;11.90;99.90;;;;;;5036603;28;20543;-62
2023/03/31 00:21:44;;;;;;;5.80;1.63;;;11.90;99.90;;;;;;5041992;28;20519;-62
2023/03/31 00:24:15;;;;;;;3.57;1.53;;;11.90;99.90;;;;;;5052393;28;20448;-54
2023/03/31 00:26:42;;;;;;;2.53;1.67;;;11.90;99.90;;;;;;5057607;28;20547;-59
2023/03/31 00:29:12;;;;;;;1.63;1.33;;;11.90;99.90;;;;;;5051903;28;20840;-61
2023/03/31 00:31:39;;;;;;;1.53;1.30;;;11.90;99.90;;;;;;5039029;28;20838;-60
2023/03/31 00:34:07;;;;;;;4.30;2.10;;;11.90;99.90;;;;;;5036093;28;20468;-62
2023/03/31 00:36:35;;;;;;;1.83;1.33;;;11.90;99.90;;;;;;5036438;28;20522;-62
2023/03/31 00:39:05;;;;;;;3.57;1.93;;;11.80;99.90;;;;;;5036209;28;20936;-60
2023/03/31 00:41:32;;;;;;;1.63;1.40;;;11.80;99.90;;;;;;5056847;28;20425;-59
2023/03/31 00:44:13;;;;;;;2.67;1.47;;;11.80;99.90;;;;;;5057056;28;20475;-61
2023/03/31 00:46:48;;;;;;;1.90;1.40;;;11.70;99.90;;;;;;5048731;28;20468;-61
2023/03/31 00:49:25;;;;;;;5.60;1.90;;;11.80;99.90;;;;;;5035872;28;20518;-61
2023/03/31 00:51:56;;;;;;;4.40;1.83;;;11.80;99.90;;;;;;5043358;28;20409;-57
2023/03/31 00:54:26;;;;;;;3.83;1.30;;;11.80;99.90;;;;;;5057503;28;20456;-60
2023/03/31 00:57:02;;;;;;;1.97;1.87;;;11.70;99.90;;;;;;5041923;28;20487;-61
2023/03/31 00:59:34;;;;;;;7.17;2.27;;;11.60;99.90;;;;;;5035952;28;20452;-60
2023/03/31 01:02:03;;;;;;;3.77;2.23;;;11.60;99.90;;;;;;5046734;28;20741;-60
2023/03/31 01:04:35;;;;;;;2.00;1.40;;;11.60;99.90;;;;;;5035781;28;20542;-60
2023/03/31 01:07:09;;;;;;;3.00;1.47;;;11.50;99.90;;;;;;5049189;28;20475;-62
2023/03/31 01:09:37;;;;;;;2.60;1.30;;;11.40;99.90;;;;;;5038391;28;20476;-59
2023/03/31 01:12:08;;;;;;;3.47;2.70;;;11.40;99.90;;;;;;5035900;28;20444;-61
2023/03/31 01:14:36;;;;;;;5.60;1.53;;;11.30;99.90;;;;;;5039162;28;20428;-61
2023/03/31 01:17:03;;;;;;;11.10;2.10;;;11.40;99.90;;;;;;5043392;28;20475;-59
2023/03/31 01:19:44;;;;;;;2.83;1.87;;;11.30;99.90;;;;;;5035680;28;20487;-60
2023/03/31 01:23:00;;;;;;;2.00;1.70;;;11.20;99.90;;;;;;5035358;28;20480;-60
2023/03/31 01:26:00;;;;;;;2.87;1.03;;;11.20;99.90;;;;;;5035414;28;20494;-60
2023/03/31 01:28:36;;;;;;;1.20;1.00;;;11.10;99.90;;;;;;5030810;28;20969;-60
2023/03/31 01:31:40;;;;;;;1.97;1.13;;;11.10;99.90;;;;;;5051173;28;20415;-55
2023/03/31 01:34:42;;;;;;;3.03;2.00;;;11.10;99.90;;;;;;5039716;28;20536;-61
2023/03/31 01:37:47;;;;;;;3.20;1.60;;;11.00;99.90;;;;;;5040177;28;20458;-57
2023/03/31 01:40:44;;;;;;;8.30;1.93;;;11.00;99.90;;;;;;5042124;28;20547;-60
2023/03/31 01:43:25;;;;;;;4.20;1.47;;;10.90;99.90;;;;;;5042196;28;20490;-54
2023/03/31 01:46:00;;;;;;;1.90;1.07;;;11.00;99.90;;;;;;5056912;28;20464;-61
2023/03/31 01:48:37;;;;;;;7.00;1.73;;;11.00;99.90;;;;;;5055190;28;20474;-60
2023/03/31 01:51:10;;;;;;;1.93;1.20;;;11.00;99.90;;;;;;5035773;28;20429;-62
2023/03/31 01:53:48;;;;;;;1.57;1.40;;;11.00;99.90;;;;;;5035397;28;20476;-62
2023/03/31 01:56:21;;;;;;;4.40;1.50;;;11.00;99.90;;;;;;5058280;28;20428;-55
2023/03/31 01:58:54;;;;;;;2.70;1.30;;;11.00;99.90;;;;;;5057105;28;20468;-56
2023/03/31 02:01:26;;;;;;;3.03;1.20;;;11.00;99.90;;;;;;5056269;28;20515;-58
2023/03/31 02:03:58;;;;;;;4.90;1.43;;;11.00;99.90;;;;;;5034684;28;20511;-59
2023/03/31 02:06:30;;;;;;;5.60;1.70;;;11.00;99.90;;;;;;5035608;28;20515;-61
2023/03/31 02:09:01;;;;;;;3.13;1.53;;;11.10;99.90;;;;;;5034577;28;20428;-59
2023/03/31 02:11:31;;;;;;;3.63;1.63;;;11.00;99.90;;;;;;5034709;28;20476;-60
2023/03/31 02:14:01;;;;;;;4.37;1.90;;;11.00;99.90;;;;;;5034852;28;20425;-57
2023/03/31 02:16:32;;;;;;;6.63;1.43;;;11.00;99.90;;;;;;5037687;28;20535;-60
2023/03/31 02:19:06;;;;;;;3.00;2.03;;;11.00;99.90;;;;;;5034461;28;20506;-61
2023/03/31 02:21:36;;;;;;;3.50;2.13;;;11.10;99.90;;;;;;5056916;28;20451;-54
2023/03/31 02:24:10;;;;;;;3.00;1.50;;;11.10;99.90;;;;;;5055514;28;20442;-60
2023/03/31 02:26:44;;;;;;;1.73;1.20;;;11.10;99.90;;;;;;5034373;28;20939;-60
2023/03/31 02:29:11;;;;;;;2.37;1.10;;;11.10;99.90;;;;;;5038751;28;20558;-60
2023/03/31 02:31:49;;;;;;;3.80;1.53;;;11.10;99.90;;;;;;5034871;28;20519;-59
2023/03/31 02:34:16;;;;;;;2.30;1.00;;;11.10;99.90;;;;;;5034163;28;20454;-60
2023/03/31 02:36:44;;;;;;;1.83;1.13;;;11.10;99.90;;;;;;5080349;23;20490;-60
2023/03/31 02:39:15;;;;;;;2.00;1.57;;;11.10;99.90;;;;;;5074125;28;20443;-60
2023/03/31 02:41:44;;;;;;;2.70;1.20;;;11.10;99.90;;;;;;5060724;28;20498;-60
2023/03/31 02:44:11;;;;;;;2.37;1.33;;;11.20;99.90;;;;;;5073248;28;20451;-60
2023/03/31 02:46:39;;;;;;;4.33;2.70;;;11.20;99.90;;;;;;5058787;28;20451;-60
2023/03/31 02:49:08;;;;;;;3.33;1.43;;;11.20;99.90;;;;;;5057481;28;20558;-61
2023/03/31 02:52:00;;;;;;;3.00;1.30;;;11.20;99.90;;;;;;5057340;28;20443;-61
2023/03/31 02:54:55;;;;;;;2.40;1.20;;;11.20;99.90;;;;;;5060574;28;20499;-61
2023/03/31 02:57:45;;;;;;;1.90;1.20;;;11.10;99.90;;;;;;5081185;28;20407;-54
2023/03/31 03:00:19;;;;;;;2.03;1.23;;;11.10;99.90;;;;;;5076743;28;20463;-60
2023/03/31 03:02:56;;;;;;;5.60;1.60;;;11.10;99.90;;;;;;5076835;28;20463;-61
2023/03/31 03:05:34;;;;;;;3.30;1.43;;;11.10;99.90;;;;;;5059923;28;20474;-61
2023/03/31 03:08:14;;;;;;;3.27;1.60;;;11.10;99.90;;;;;;5057404;28;20463;-60
2023/03/31 03:10:50;;;;;;;1.73;1.10;;;11.10;99.90;;;;;;5056650;28;20471;-61
2023/03/31 03:13:22;;;;;;;2.30;1.43;;;11.20;99.90;;;;;;5038918;28;20475;-60
2023/03/31 03:15:56;;;;;;;3.40;1.10;;;11.20;99.90;;;;;;5051705;28;20424;-57
2023/03/31 03:18:23;;;;;;;2.20;1.20;;;11.20;99.90;;;;;;5058137;28;20436;-58
2023/03/31 03:20:50;;;;;;;1.20;1.10;;;11.20;99.90;;;;;;5057489;28;20455;-60
2023/03/31 03:23:19;;;;;;;3.60;1.57;;;11.30;99.90;;;;;;5057197;28;20447;-61
2023/03/31 03:25:46;;;;;;;5.63;1.47;;;11.30;99.90;;;;;;5038727;28;20475;-61
2023/03/31 03:28:13;;;;;;;1.20;0.80;;;11.30;99.90;;;;;;5048319;28;20481;-59
2023/03/31 03:30:42;;;;;;;1.73;1.03;;;11.30;99.90;;;;;;5043040;28;20521;-60
2023/03/31 03:33:09;;;;;;;2.17;1.20;;;11.30;99.90;;;;;;5042184;28;20508;-60
2023/03/31 03:35:36;;;;;;;2.90;1.33;;;11.30;99.90;;;;;;5048337;28;20836;-62
2023/03/31 03:38:03;;;;;;;5.33;1.33;;;11.30;99.90;;;;;;5051874;28;20468;-61
2023/03/31 03:40:30;;;;;;;3.20;1.23;;;11.40;99.90;;;;;;5064493;28;20459;-61
2023/03/31 03:42:57;;;;;;;4.70;1.30;;;11.40;99.90;;;;;;5056947;28;20463;-57
2023/03/31 03:45:24;;;;;;;3.63;1.40;;;11.40;99.90;;;;;;5064421;28;20514;-61
2023/03/31 03:47:52;;;;;;;2.67;1.20;;;11.40;99.90;;;;;;5056188;28;20820;-61
2023/03/31 03:50:19;;;;;;;2.50;1.40;;;11.40;99.90;;;;;;5055275;28;20478;-61
2023/03/31 03:52:46;;;;;;;3.53;1.17;;;11.40;99.90;;;;;;5055684;28;20443;-60
2023/03/31 03:55:13;;;;;;;2.10;1.50;;;11.40;99.90;;;;;;5055932;28;20479;-60
2023/03/31 03:57:40;;;;;;;1.90;1.17;;;11.50;99.90;;;;;;5056161;28;20447;-60
2023/03/31 04:00:11;;;;;;;3.83;1.20;;;11.50;99.90;;;;;;5064954;28;20471;-60
2023/03/31 04:02:38;;;;;;;9.93;1.13;;;11.50;99.90;;;;;;5055964;28;20482;-60
2023/03/31 04:05:11;;;;;;;4.23;1.60;;;11.50;99.90;;;;;;5062901;28;20511;-60
2023/03/31 04:07:38;;;;;;;3.27;1.17;;;11.50;99.90;;;;;;5056090;28;20474;-60
2023/03/31 04:10:09;;;;;;;3.90;1.53;;;11.50;99.90;;;;;;5059336;28;20478;-61
2023/03/31 04:12:39;;;;;;;1.57;1.47;;;11.50;99.90;;;;;;5066634;28;20436;-62
2023/03/31 04:15:07;;;;;;;1.30;1.20;;;11.40;99.90;;;;;;5075065;28;20463;-60
2023/03/31 04:17:35;;;;;;;1.63;1.20;;;11.50;99.90;;;;;;5070483;28;20505;-61
2023/03/31 04:20:06;;;;;;;3.40;1.20;;;11.50;99.90;;;;;;5056675;28;20470;-60
2023/03/31 04:22:39;;;;;;;1.50;1.00;;;11.50;99.90;;;;;;5056990;28;20918;-61
2023/03/31 04:25:15;;;;;;;2.30;1.30;;;11.50;99.90;;;;;;5062470;28;20452;-54
2023/03/31 04:27:45;;;;;;;3.03;1.60;;;11.50;99.90;;;;;;5079348;28;20546;-57
2023/03/31 04:30:21;;;;;;;2.37;1.00;;;11.50;99.90;;;;;;5057948;28;20903;-59
2023/03/31 04:32:49;;;;;;;2.73;1.77;;;11.50;99.90;;;;;;5060098;28;20556;-61
2023/03/31 04:35:16;;;;;;;1.93;1.20;;;11.50;99.90;;;;;;5056295;28;20517;-60
2023/03/31 04:37:45;;;;;;;3.60;1.50;;;11.50;99.90;;;;;;5062143;28;20487;-61
2023/03/31 04:40:15;;;;;;;5.43;1.70;;;11.40;99.90;;;;;;5074535;28;20506;-57
2023/03/31 04:42:42;;;;;;;4.90;1.37;;;11.40;99.90;;;;;;5074726;28;20499;-60
2023/03/31 04:45:10;;;;;;;2.17;1.10;;;11.30;99.90;;;;;;5071795;28;20490;-62
2023/03/31 04:47:37;;;;;;;1.30;1.07;;;11.30;99.90;;;;;;5078510;28;20566;-53
2023/03/31 04:50:05;;;;;;;2.90;1.30;;;11.30;99.90;;;;;;5078867;28;20419;-56
2023/03/31 04:52:38;;;;;;;3.33;1.23;;;11.30;99.90;;;;;;5057594;28;20499;-61
2023/03/31 04:55:08;;;;;;;3.87;1.93;;;11.20;99.90;;;;;;5054856;28;20443;-60
2023/03/31 04:57:41;;;;;;;4.97;1.87;;;11.20;99.90;;;;;;5054703;28;20818;-60
2023/03/31 05:00:10;;;;;;;3.13;1.43;;;11.20;99.90;;;;;;5066250;28;20451;-61
2023/03/31 05:02:37;;;;;;;4.40;1.10;;;11.20;99.90;;;;;;5054301;28;20451;-60
2023/03/31 05:05:04;;;;;;;2.73;1.17;;;11.20;99.90;;;;;;5059319;28;20505;-61
2023/03/31 05:07:31;;;;;;;1.90;1.00;;;11.20;99.90;;;;;;5065739;28;20450;-61
2023/03/31 05:10:00;;;;;;;2.77;1.10;;;11.20;99.90;;;;;;5055313;28;20522;-62
2023/03/31 05:12:28;;;;;;;4.93;1.80;;;11.20;99.90;;;;;;5064559;28;20477;-60
2023/03/31 05:14:55;;;;;;;1.30;1.10;;;11.20;99.90;;;;;;5066655;28;20501;-61
2023/03/31 05:17:22;;;;;;;3.43;1.33;;;11.20;99.90;;;;;;5066705;28;20538;-60
2023/03/31 05:19:49;;;;;;;4.33;1.00;;;11.10;99.90;;;;;;5075657;28;20447;-59
2023/03/31 05:22:19;;;;;;;4.40;1.30;;;11.10;99.90;;;;;;5056911;28;20452;-58
2023/03/31 05:24:46;;;;;;;4.30;1.40;;;11.10;99.90;;;;;;5072085;28;20519;-61
2023/03/31 05:27:13;;;;;;;2.80;1.70;;;11.10;99.90;;;;;;5074433;28;20463;-58
2023/03/31 05:29:42;;;;;;;2.70;1.20;;;11.10;99.90;;;;;;5061717;28;20523;-55
2023/03/31 05:32:09;;;;;;;3.27;1.30;;;11.10;99.90;;;;;;5065537;28;20467;-61
2023/03/31 05:34:36;;;;;;;3.77;1.13;;;11.10;99.90;;;;;;5054187;28;20512;-58
2023/03/31 05:37:03;;;;;;;6.40;1.53;;;11.10;99.90;;;;;;5053807;28;20555;-61
2023/03/31 05:39:31;;;;;;;6.40;1.97;;;11.10;99.90;;;;;;5054487;28;20847;-62
2023/03/31 05:41:58;;;;;;;5.73;1.50;;;11.10;99.90;;;;;;5054479;28;20550;-61
2023/03/31 05:44:26;;;;;;;2.70;1.43;;;11.10;99.90;;;;;;5058157;28;20451;-61
2023/03/31 05:46:54;;;;;;;8.30;1.60;;;11.10;99.90;;;;;;5068661;28;20513;-61
2023/03/31 05:49:21;;;;;;;2.40;1.50;;;11.20;99.90;;;;;;5054199;28;20491;-62
2023/03/31 05:51:49;;;;;;;2.70;1.20;;;11.20;99.90;;;;;;5055763;28;20458;-60
2023/03/31 05:54:16;;;;;;;6.90;1.83;;;11.30;99.90;;;;;;5068341;28;20483;-60
2023/03/31 05:56:43;;;;;;;2.13;1.40;;;11.40;99.90;;;;;;5053847;28;20493;-61
2023/03/31 05:59:09;;;;;;;2.00;1.50;;;11.50;99.90;;;;;;5054220;28;20562;-61
2023/03/31 06:01:36;;;;;;;3.47;1.67;;;11.50;99.90;;;;;;5054632;28;20537;-62
2023/03/31 06:04:05;;;;;;;16.17;1.97;;;11.60;99.90;;;;;;5053754;28;20494;-62
2023/03/31 06:06:33;;;;;;;4.10;1.43;;;11.70;99.90;;;;;;5054315;28;20502;-61
2023/03/31 06:09:04;;;;;;;3.10;1.80;;;11.80;99.90;;;;;;5057535;28;20557;-59
2023/03/31 06:11:31;;;;;;;3.00;1.57;;;11.80;99.90;;;;;;5065994;28;20533;-61
2023/03/31 06:14:02;;;;;;;3.83;1.63;;;11.80;99.90;;;;;;5064325;28;20482;-59
2023/03/31 06:16:29;;;;;;;4.80;1.63;;;11.80;99.90;;;;;;5074970;28;20454;-61
2023/03/31 06:18:56;;;;;;;4.13;1.90;;;11.90;99.90;;;;;;5075163;28;20411;-61
2023/03/31 06:21:24;;;;;;;4.10;1.73;;;11.90;99.90;;;;;;5074905;28;20554;-60
2023/03/31 06:23:54;;;;;;;2.43;2.20;;;11.90;99.90;;;;;;5074882;28;20462;-60
2023/03/31 06:26:22;;;;;;;5.27;1.77;;;11.80;99.90;;;;;;5065906;28;20451;-60
2023/03/31 06:28:49;;;;;;;3.53;1.67;;;11.80;99.90;;;;;;5053678;28;20928;-61
2023/03/31 06:31:18;;;;;;;5.10;1.93;;;11.80;99.90;;;;;;5055517;28;20455;-61
2023/03/31 06:33:45;;;;;;;3.13;2.00;;;11.80;99.90;;;;;;5068229;28;20467;-60
2023/03/31 06:36:14;;;;;;;6.33;2.00;;;11.80;99.90;;;;;;5074899;28;20469;-57
2023/03/31 06:38:43;;;;;;;7.17;2.00;;;11.80;99.90;;;;;;5074318;28;20418;-60
2023/03/31 06:41:13;;;;;;;4.17;1.60;;;11.80;99.90;;;;;;5073667;28;20477;-61
2023/03/31 06:43:40;;;;;;;10.70;2.40;;;11.80;99.90;;;;;;5053540;28;20478;-60
2023/03/31 06:46:07;;;;;;;5.33;2.67;;;11.80;99.90;;;;;;5062298;28;20463;-58
2023/03/31 06:48:40;;;;;;;2.17;1.70;;;11.80;99.90;;;;;;5073642;28;20497;-61
2023/03/31 06:51:08;;;;;;;6.33;2.73;;;11.80;99.90;;;;;;5074583;28;20478;-61
2023/03/31 06:53:35;;;;;;;2.90;1.73;;;11.80;99.90;;;;;;5073738;28;20486;-61
2023/03/31 06:56:04;;;;;;;4.87;2.07;;;11.90;99.90;;;;;;5072595;28;20477;-58
2023/03/31 06:58:31;;;;;;;8.53;1.90;;;12.00;99.90;;;;;;5056322;28;20432;-61
2023/03/31 07:00:59;;;;;;;3.83;1.87;;;12.00;99.90;;;;;;5055767;28;20486;-61
2023/03/31 07:03:28;;;;;;;4.03;1.77;;;12.10;99.90;;;;;;5053750;28;20443;-61
2023/03/31 07:05:56;;;;;;;4.53;1.90;;;12.20;99.90;;;;;;5057967;28;20522;-60
2023/03/31 07:08:25;;;;;;;3.50;1.67;;;12.20;99.90;;;;;;5054650;28;20537;-61
2023/03/31 07:10:56;;;;;;;2.90;2.13;;;12.30;99.90;;;;;;5070082;28;20475;-61
2023/03/31 07:13:30;;;;;;;3.13;2.23;;;12.40;99.90;;;;;;5063085;28;20471;-62
2023/03/31 07:15:57;;;;;;;2.67;1.77;;;12.50;99.90;;;;;;5064018;28;20459;-61
2023/03/31 07:18:31;;;;;;;4.23;2.23;;;12.60;99.90;;;;;;5053259;28;20512;-61
2023/03/31 07:20:59;;;;;;;3.57;2.10;;;12.70;99.90;;;;;;5036579;28;20921;-61
2023/03/31 07:23:26;;;;;;;6.03;1.93;;;12.70;99.90;;;;;;5033343;28;20452;-61
2023/03/31 07:25:53;;;;;;;3.10;1.50;;;12.80;99.90;;;;;;5035932;28;21032;-61
2023/03/31 07:28:20;;;;;;;2.20;1.90;;;12.90;99.90;;;;;;5045214;28;20546;-61
2023/03/31 07:30:48;;;;;;;2.03;1.73;;;13.00;99.90;;;;;;5040976;28;20471;-63
2023/03/31 07:33:15;;;;;;;3.53;1.50;;;13.20;99.90;;;;;;5054530;28;20460;-61
2023/03/31 07:35:42;;;;;;;20.10;2.50;;;13.30;99.90;;;;;;5057300;28;20451;-57
2023/03/31 07:38:09;;;;;;;3.93;2.13;;;13.40;99.90;;;;;;5059492;28;20454;-63
2023/03/31 07:40:36;;;;;;;3.60;1.63;;;13.50;99.90;;;;;;5058080;28;20509;-61
2023/03/31 07:43:04;;;;;;;2.70;2.00;;;13.60;99.90;;;;;;5074127;28;20443;-61
2023/03/31 07:45:31;;;;;;;5.27;1.80;;;13.70;99.90;;;;;;5075438;28;20451;-64
2023/03/31 07:47:59;;;;;;;2.57;1.47;;;13.70;99.90;;;;;;5077476;28;20483;-60
2023/03/31 07:50:26;;;;;;;1.20;1.10;;;13.80;99.90;;;;;;5058339;28;20524;-62
2023/03/31 07:52:53;;;;;;;1.97;1.57;;;13.80;99.90;;;;;;5061448;28;20483;-62
2023/03/31 07:55:22;;;;;;;2.97;1.20;;;13.90;99.90;;;;;;5077351;28;20450;-59
2023/03/31 07:57:50;;;;;;;1.33;1.23;;;13.90;99.90;;;;;;5077566;28;20493;-59
2023/03/31 08:00:18;;;;;;;2.20;1.30;;;14.10;99.90;;;;;;5075126;28;20508;-64
2023/03/31 08:02:47;;;;;;;23.97;11.40;;;14.20;99.90;;;;;;5075542;28;20474;-56
2023/03/31 08:05:21;;;;;;;4.97;2.27;;;14.40;99.90;;;;;;5075233;28;20440;-61
2023/03/31 08:07:50;;;;;;;6.20;2.40;;;14.50;99.90;;;;;;5039708;28;20470;-61
2023/03/31 08:10:20;;;;;;;3.97;1.50;;;14.70;99.90;;;;;;5046519;28;20480;-61
2023/03/31 08:12:47;;;;;;;5.93;1.50;;;14.80;99.90;;;;;;5046506;28;20460;-63
2023/03/31 08:15:14;;;;;;;6.70;2.10;;;15.00;99.90;;;;;;5037831;28;20535;-63
2023/03/31 08:17:41;;;;;;;8.30;2.13;;;15.00;99.90;;;;;;5036855;28;20742;-62
2023/03/31 08:20:09;;;;;;;9.30;2.00;;;15.10;99.90;;;;;;5042005;28;20482;-62
2023/03/31 08:22:38;;;;;;;9.40;2.10;;;15.30;99.90;;;;;;5036053;28;20538;-62
2023/03/31 08:25:08;;;;;;;4.60;2.67;;;15.50;99.90;;;;;;5035684;28;20506;-62
2023/03/31 08:27:35;;;;;;;7.00;2.60;;;15.70;99.90;;;;;;5042782;28;20439;-60
2023/03/31 08:30:03;;;;;;;5.27;2.07;;;15.70;99.90;;;;;;5053243;28;20464;-62
2023/03/31 08:32:32;;;;;;;2.53;1.80;;;15.90;99.90;;;;;;5062362;28;20443;-59
2023/03/31 08:34:59;;;;;;;2.80;2.40;;;16.20;99.90;;;;;;5075232;28;20439;-60
2023/03/31 08:37:27;;;;;;;4.93;2.67;;;16.50;99.90;;;;;;5056061;28;20546;-61
2023/03/31 08:39:59;;;;;;;6.47;1.90;;;16.50;99.90;;;;;;5074527;28;20454;-60
2023/03/31 08:42:33;;;;;;;5.63;1.90;;;16.50;99.90;;;;;;5072466;28;20505;-58
2023/03/31 08:45:03;;;;;;;4.97;2.30;;;17.10;99.90;;;;;;5054856;28;20468;-58
2023/03/31 08:47:33;;;;;;;7.90;2.70;;;17.80;99.90;;;;;;5053693;28;20444;-55
2023/03/31 08:50:05;;;;;;;3.93;2.60;;;18.20;99.90;;;;;;5055168;28;20460;-55
2023/03/31 08:52:37;;;;;;;3.27;1.90;;;18.40;99.90;;;;;;5055492;28;20433;-57
2023/03/31 08:55:11;;;;;;;3.00;1.53;;;18.20;99.90;;;;;;5055617;28;20468;-59
2023/03/31 08:57:43;;;;;;;3.63;1.70;;;18.20;99.90;;;;;;5056243;28;20507;-58
2023/03/31 09:00:15;;;;;;;3.27;1.63;;;18.10;99.90;;;;;;5056111;28;20413;-56
2023/03/31 09:02:51;;;;;;;5.00;1.73;;;17.90;99.90;;;;;;5055799;28;20448;-57
2023/03/31 09:05:31;;;;;;;22.97;11.27;;;17.70;99.90;;;;;;5055891;28;20464;-59
2023/03/31 09:08:06;;;;;;;6.07;3.50;;;17.30;99.90;;;;;;5063967;28;20435;-57
2023/03/31 09:10:42;;;;;;;5.77;2.30;;;17.20;99.90;;;;;;5072117;28;20478;-56
2023/03/31 09:13:37;;;;;;;4.70;2.13;;;17.00;99.90;;;;;;5074647;28;20435;-58
2023/03/31 09:16:13;;;;;;;7.60;2.23;;;17.10;99.90;;;;;;5075168;28;20467;-59
2023/03/31 09:18:45;;;;;;;3.33;1.83;;;17.30;99.90;;;;;;5074931;28;20446;-57
2023/03/31 09:21:18;;;;;;;2.70;1.57;;;17.40;99.90;;;;;;5075178;28;20458;-59
2023/03/31 09:23:48;;;;;;;3.17;1.67;;;18.00;99.90;;;;;;5074393;28;20462;-58
2023/03/31 09:26:27;;;;;;;3.20;1.90;;;19.10;99.90;;;;;;5074754;28;20486;-57
2023/03/31 09:28:58;;;;;;;3.97;1.90;;;20.40;99.90;;;;;;5074415;28;20470;-60
2023/03/31 09:31:25;;;;;;;5.50;1.73;;;20.90;99.90;;;;;;5074196;28;20439;-58
2023/03/31 09:33:57;;;;;;;4.60;2.00;;;20.20;99.90;;;;;;5073966;28;20452;-58
2023/03/31 09:36:24;;;;;;;2.93;1.40;;;19.80;99.90;;;;;;5073939;28;20475;-58
2023/03/31 09:38:51;;;;;;;6.77;1.73;;;20.00;99.90;;;;;;5075299;28;20471;-58
2023/03/31 09:41:21;;;;;;;6.53;2.70;;;20.00;99.90;;;;;;5067591;28;20460;-60
2023/03/31 09:43:50;;;;;;;3.57;1.90;;;19.70;99.90;;;;;;5054724;28;20448;-57
2023/03/31 09:46:21;;;;;;;5.73;2.33;;;19.00;99.90;;;;;;5053947;28;20516;-59
2023/03/31 09:48:58;;;;;;;3.57;1.63;;;18.50;99.90;;;;;;5060498;28;20427;-56
2023/03/31 09:51:29;;;;;;;4.20;1.87;;;18.00;99.90;;;;;;5075167;28;20455;-57
2023/03/31 09:54:02;;;;;;;4.73;1.60;;;17.50;99.90;;;;;;5074478;28;20479;-58
2023/03/31 09:56:45;;;;;;;5.83;2.37;;;17.40;99.90;;;;;;5074628;28;20470;-56
2023/03/31 09:59:16;;;;;;;3.00;1.70;;;17.70;99.90;;;;;;5074442;28;20429;-56
2023/03/31 10:01:45;;;;;;;4.03;2.00;;;18.10;99.90;;;;;;5074579;28;20567;-53
2023/03/31 10:04:20;;;;;;;6.10;1.93;;;18.40;99.90;;;;;;5074648;28;20436;-56
2023/03/31 10:06:48;;;;;;;9.87;3.83;;;18.40;99.90;;;;;;5074021;28;20459;-58
2023/03/31 10:09:16;;;;;;;5.30;2.63;;;18.20;99.90;;;;;;5073622;28;20479;-58
2023/03/31 10:11:59;;;;;;;4.37;1.87;;;17.80;99.90;;;;;;5074579;28;20566;-62
2023/03/31 10:14:32;;;;;;;4.50;2.00;;;17.20;99.90;;;;;;5074747;28;20455;-62
2023/03/31 10:17:05;;;;;;;4.80;2.17;;;16.90;99.90;;;;;;5074351;28;20497;-61
2023/03/31 10:19:34;;;;;;;3.47;2.33;;;16.60;99.90;;;;;;5073842;28;20435;-61
2023/03/31 10:22:03;;;;;;;3.40;1.90;;;16.40;99.90;;;;;;5073248;28;20470;-56
2023/03/31 10:24:39;;;;;;;2.70;2.00;;;16.30;99.90;;;;;;5073781;28;20458;-59
2023/03/31 10:27:20;;;;;;;2.53;2.27;;;16.20;99.90;;;;;;5074722;28;20510;-53
2023/03/31 10:29:47;;;;;;;4.40;2.47;;;16.10;99.90;;;;;;5074209;28;20530;-58
2023/03/31 10:32:23;;;;;;;6.90;3.40;;;15.90;99.90;;;;;;5074283;28;20490;-57
2023/03/31 10:34:50;;;;;;;2.60;2.40;;;15.80;99.90;;;;;;5071996;28;20427;-60
2023/03/31 10:37:19;;;;;;;6.63;3.37;;;15.80;99.90;;;;;;5068195;28;20479;-58
2023/03/31 10:39:46;;;;;;;3.60;2.73;;;15.70;99.90;;;;;;5068389;28;20456;-60
2023/03/31 10:42:22;;;;;;;4.60;2.63;;;15.80;99.90;;;;;;5073851;28;20523;-58
2023/03/31 10:44:49;;;;;;;3.73;2.30;;;15.90;99.90;;;;;;5074440;28;20437;-59
2023/03/31 10:47:20;;;;;;;3.20;2.40;;;15.90;99.90;;;;;;5073827;28;20460;-57
2023/03/31 10:49:54;;;;;;;7.17;2.50;;;15.90;99.90;;;;;;5073661;28;20475;-57
2023/03/31 10:52:23;;;;;;;3.97;2.40;;;15.80;99.90;;;;;;5073837;28;20451;-54
2023/03/31 10:54:55;;;;;;;4.33;2.43;;;15.70;99.90;;;;;;5074642;28;20420;-59
2023/03/31 10:57:34;;;;;;;6.60;2.70;;;15.70;99.90;;;;;;5073881;28;20459;-59
2023/03/31 11:00:13;;;;;;;4.00;2.40;;;15.60;99.90;;;;;;5074298;28;20438;-59
2023/03/31 11:03:15;;;;;;;5.40;2.63;;;15.60;99.90;;;;;;5077476;28;20427;-60
2023/03/31 11:05:48;;;;;;;2.27;2.00;;;15.30;99.90;;;;;;5059982;28;20961;-59
2023/03/31 11:08:40;;;;;;;4.27;2.70;;;15.30;99.90;;;;;;5077171;28;20459;-60
2023/03/31 11:11:26;;;;;;;3.17;2.23;;;15.30;99.90;;;;;;5077630;28;20535;-59
2023/03/31 11:14:00;;;;;;;2.83;2.20;;;15.30;99.90;;;;;;5074321;28;20503;-59
2023/03/31 11:16:33;;;;;;;2.73;1.90;;;15.40;99.90;;;;;;5077317;28;20492;-59
2023/03/31 11:19:12;;;;;;;3.97;1.70;;;15.60;99.90;;;;;;5077331;28;20501;-58
2023/03/31 11:21:56;;;;;;;4.27;1.30;;;16.00;99.90;;;;;;5076680;28;20427;-57
2023/03/31 11:24:37;;;;;;;1.80;1.47;;;16.20;99.90;;;;;;5076745;28;20502;-58
2023/03/31 11:27:19;;;;;;;2.40;1.30;;;16.30;99.90;;;;;;5077297;28;20430;-58
2023/03/31 11:29:52;;;;;;;2.03;1.40;;;16.20;99.90;;;;;;5076099;28;20489;-58
2023/03/31 11:32:45;;;;;;;1.57;1.40;;;15.90;99.90;;;;;;5077329;28;20415;-59
2023/03/31 11:35:31;;;;;;;4.13;1.90;;;15.90;99.90;;;;;;5077407;28;20454;-58
2023/03/31 11:38:16;;;;;;;4.40;1.70;;;15.90;99.90;;;;;;5076969;28;20492;-59
2023/03/31 11:40:55;;;;;;;4.80;1.50;;;15.90;99.90;;;;;;5077131;28;20473;-57
2023/03/31 11:43:31;;;;;;;2.03;1.67;;;15.90;99.90;;;;;;5077136;28;20427;-60
2023/03/31 11:46:04;;;;;;;6.40;2.53;;;15.90;99.90;;;;;;5076927;28;20466;-57
2023/03/31 11:48:41;;;;;;;2.87;1.50;;;15.80;99.90;;;;;;5076774;28;20424;-56
2023/03/31 11:51:14;;;;;;;3.40;2.00;;;15.80;99.90;;;;;;5077392;28;20485;-59
2023/03/31 11:53:43;;;;;;;5.33;1.80;;;15.80;99.90;;;;;;5077247;28;20475;-59
2023/03/31 11:56:12;;;;;;;4.83;2.00;;;15.70;99.90;;;;;;5077193;28;20501;-58
2023/03/31 11:58:45;;;;;;;2.17;1.80;;;15.70;99.90;;;;;;5077675;28;20454;-56
2023/03/31 12:01:23;;;;;;;3.77;2.07;;;15.70;99.90;;;;;;5077179;28;20455;-58
2023/03/31 12:03:57;;;;;;;5.03;1.87;;;15.80;99.90;;;;;;5078632;28;20427;-64
2023/03/31 12:06:30;;;;;;;9.50;2.83;;;15.80;99.90;;;;;;5077299;28;20496;-65
2023/03/31 12:09:07;;;;;;;6.20;2.60;;;15.60;99.90;;;;;;5078032;28;20428;-60
2023/03/31 12:11:41;;;;;;;2.60;2.40;;;15.50;99.90;;;;;;5076924;28;20526;-64
2023/03/31 12:14:29;;;;;;;4.47;2.70;;;15.50;99.90;;;;;;5077577;28;20428;-63
2023/03/31 12:17:04;;;;;;;7.30;3.10;;;15.50;99.90;;;;;;5078048;28;20455;-63
2023/03/31 12:19:39;;;;;;;3.67;2.50;;;15.40;99.90;;;;;;5078383;28;20447;-62
2023/03/31 12:22:14;;;;;;;4.87;2.43;;;15.40;99.90;;;;;;5077803;28;20530;-63
2023/03/31 12:24:41;;;;;;;3.30;1.63;;;15.50;99.90;;;;;;5077795;28;20442;-63
2023/03/31 12:27:14;;;;;;;16.03;5.87;;;15.60;99.90;;;;;;5078250;28;20451;-64
2023/03/31 12:29:47;;;;;;;4.27;3.00;;;15.60;99.90;;;;;;5078691;28;20412;-62
2023/03/31 12:32:18;;;;;;;2.07;1.87;;;15.70;99.90;;;;;;5078940;28;20466;-62
2023/03/31 12:34:53;;;;;;;3.40;2.17;;;15.60;99.90;;;;;;5078711;28;20415;-63
2023/03/31 12:37:53;;;;;;;3.37;1.83;;;15.60;99.90;;;;;;5078489;28;20458;-65
2023/03/31 12:40:34;;;;;;;2.37;1.83;;;15.50;99.90;;;;;;5078481;28;20411;-61
2023/03/31 12:43:31;;;;;;;1.50;1.10;;;15.40;99.90;;;;;;5078054;28;20471;-64
2023/03/31 12:46:21;;;;;;;3.10;1.40;;;15.10;99.90;;;;;;5041331;28;20435;-60
2023/03/31 12:49:06;;;;;;;3.60;1.17;;;14.70;99.90;;;;;;5077835;28;20444;-61
2023/03/31 12:51:55;;;;;;;1.67;0.90;;;14.20;99.90;;;;;;5077880;28;20482;-61
2023/03/31 12:54:57;;;;;;;1.67;1.17;;;13.80;99.90;;;;;;5077341;28;20438;-62
2023/03/31 12:57:25;;;;;;;5.97;1.53;;;13.40;99.90;;;;;;5056018;28;20497;-64
2023/03/31 13:00:24;;;;;;;3.03;1.40;;;13.30;99.90;;;;;;5077684;28;20436;-61
2023/03/31 13:03:13;;;;;;;1.40;1.03;;;13.10;99.90;;;;;;5077637;28;20489;-64
2023/03/31 13:05:58;;;;;;;2.70;1.73;;;12.90;99.90;;;;;;5077164;28;20442;-63
2023/03/31 13:08:52;;;;;;;2.53;1.87;;;12.70;99.90;;;;;;5076630;28;20455;-65
2023/03/31 13:11:20;;;;;;;6.57;2.50;;;12.70;99.90;;;;;;5076746;28;20511;-61
2023/03/31 13:13:59;;;;;;;5.43;2.30;;;12.70;99.90;;;;;;5076457;28;20463;-65